createdAt,value
2022-09-15T00:00:28.883Z,16.10
2022-09-15T00:02:56.586Z,16.20
2022-09-15T00:05:23.652Z,16.20
2022-09-15T00:07:50.726Z,16.20
2022-09-15T00:10:18.066Z,16.20
2022-09-15T00:12:45.041Z,16.10
2022-09-15T00:15:14.819Z,16.10
2022-09-15T00:17:43.064Z,16.00
2022-09-15T00:20:10.663Z,16.10
2022-09-15T00:22:37.771Z,16.10
2022-09-15T00:25:06.112Z,16.10
2022-09-15T00:27:33.850Z,16.10
2022-09-15T00:30:00.971Z,16.10
2022-09-15T00:32:28.071Z,16.10
2022-09-15T00:34:54.962Z,16.00
2022-09-15T00:37:21.860Z,15.90
2022-09-15T00:39:49.706Z,15.80
2022-09-15T00:42:18.106Z,15.80
2022-09-15T00:44:56.122Z,15.70
2022-09-15T00:47:26.081Z,15.70
2022-09-15T00:49:59.372Z,15.90
2022-09-15T00:52:32.657Z,15.90
2022-09-15T00:55:18.727Z,15.90
2022-09-15T00:58:07.530Z,16.00
2022-09-15T01:03:10.679Z,16.10
2022-09-15T01:05:50.000Z,16.20
2022-09-15T01:08:34.132Z,16.10
2022-09-15T01:11:01.247Z,16.10
2022-09-15T01:13:29.800Z,16.10
2022-09-15T01:16:03.301Z,16.10
2022-09-15T01:18:48.794Z,16.00
2022-09-15T01:21:46.038Z,16.00
2022-09-15T01:24:37.712Z,15.90
2022-09-15T01:27:41.656Z,15.80
2022-09-15T01:30:13.430Z,15.90
2022-09-15T01:33:04.566Z,15.90
2022-09-15T01:35:52.624Z,15.80
2022-09-15T01:39:01.088Z,15.80
2022-09-15T01:41:35.800Z,15.80
2022-09-15T01:44:12.689Z,15.90
2022-09-15T01:46:47.207Z,15.80
2022-09-15T01:49:24.168Z,15.80
2022-09-15T01:51:52.294Z,15.70
2022-09-15T01:54:30.893Z,15.70
2022-09-15T01:56:57.950Z,15.60
2022-09-15T01:59:24.914Z,15.70
2022-09-15T02:02:17.746Z,15.80
2022-09-15T02:04:53.567Z,15.70
2022-09-15T02:07:35.659Z,15.70
2022-09-15T02:10:11.595Z,15.70
2022-09-15T02:13:06.327Z,15.80
2022-09-15T02:15:37.542Z,15.80
2022-09-15T02:18:05.729Z,15.70
2022-09-15T02:20:41.369Z,15.70
2022-09-15T02:23:13.360Z,15.60
2022-09-15T02:25:51.921Z,15.60
2022-09-15T02:28:20.494Z,15.60
2022-09-15T02:30:47.532Z,15.60
2022-09-15T02:33:17.272Z,15.60
2022-09-15T02:35:44.324Z,15.50
2022-09-15T02:38:11.324Z,15.60
2022-09-15T02:40:40.474Z,15.60
2022-09-15T02:43:13.564Z,15.60
2022-09-15T02:45:40.604Z,15.60
2022-09-15T02:48:09.903Z,15.60
2022-09-15T02:50:37.473Z,15.50
2022-09-15T02:53:04.731Z,15.60
2022-09-15T02:55:31.688Z,15.50
2022-09-15T02:57:59.044Z,15.60
2022-09-15T03:00:26.994Z,15.60
2022-09-15T03:02:54.636Z,15.60
2022-09-15T03:05:29.267Z,15.60
2022-09-15T03:07:56.980Z,15.60
2022-09-15T03:10:24.935Z,15.60
2022-09-15T03:12:53.418Z,15.60
2022-09-15T03:15:24.747Z,15.50
2022-09-15T03:17:51.896Z,15.60
2022-09-15T03:20:21.334Z,15.50
2022-09-15T03:22:48.822Z,15.60
2022-09-15T03:25:16.742Z,15.60
2022-09-15T03:27:43.741Z,15.60
2022-09-15T03:30:11.394Z,15.50
2022-09-15T03:32:38.282Z,15.60
2022-09-15T03:35:06.155Z,15.60
2022-09-15T03:37:33.474Z,15.60
2022-09-15T03:40:00.441Z,15.60
2022-09-15T03:42:27.478Z,15.60
2022-09-15T03:44:54.719Z,15.60
2022-09-15T03:47:21.711Z,15.60
2022-09-15T03:49:48.614Z,15.60
2022-09-15T03:52:15.833Z,15.60
2022-09-15T03:54:42.882Z,15.60
2022-09-15T03:57:09.779Z,15.60
2022-09-15T03:59:36.941Z,15.60
2022-09-15T04:02:04.097Z,15.60
2022-09-15T04:04:31.296Z,15.60
2022-09-15T04:06:58.898Z,15.60
2022-09-15T04:09:25.898Z,15.60
2022-09-15T04:11:52.823Z,15.60
2022-09-15T04:14:19.856Z,15.60
2022-09-15T04:16:47.785Z,15.60
2022-09-15T04:19:14.777Z,15.50
2022-09-15T04:21:41.883Z,15.60
2022-09-15T04:24:08.740Z,15.50
2022-09-15T04:26:36.664Z,15.50
2022-09-15T04:29:05.211Z,15.60
2022-09-15T04:31:33.131Z,15.60
2022-09-15T04:34:00.273Z,15.60
2022-09-15T04:36:28.785Z,15.60
2022-09-15T04:38:56.643Z,15.60
2022-09-15T04:41:25.733Z,15.60
2022-09-15T04:43:52.781Z,15.60
2022-09-15T04:46:20.073Z,15.60
2022-09-15T04:48:48.912Z,15.40
2022-09-15T04:51:20.733Z,15.40
2022-09-15T04:53:48.064Z,15.30
2022-09-15T04:56:18.219Z,15.30
2022-09-15T04:58:47.665Z,15.20
2022-09-15T05:01:19.227Z,15.20
2022-09-15T05:03:47.555Z,15.10
2022-09-15T05:06:17.802Z,15.20
2022-09-15T05:08:49.536Z,15.30
2022-09-15T05:11:17.757Z,15.20
2022-09-15T05:13:44.674Z,15.10
2022-09-15T05:16:19.861Z,15.20
2022-09-15T05:18:48.535Z,15.20
2022-09-15T05:21:17.599Z,15.20
2022-09-15T05:23:44.671Z,15.30
2022-09-15T05:26:13.847Z,15.30
2022-09-15T05:28:40.856Z,15.40
2022-09-15T05:31:32.142Z,15.40
2022-09-15T05:34:00.889Z,15.40
2022-09-15T05:36:27.793Z,15.40
2022-09-15T05:38:56.751Z,15.50
2022-09-15T05:41:24.489Z,15.50
2022-09-15T05:43:51.454Z,15.50
2022-09-15T05:46:23.198Z,15.50
2022-09-15T05:48:50.187Z,15.50
2022-09-15T05:51:17.646Z,15.50
2022-09-15T05:53:44.689Z,15.50
2022-09-15T05:56:13.292Z,15.50
2022-09-15T05:58:41.089Z,15.60
2022-09-15T06:01:13.665Z,15.60
2022-09-15T06:03:40.784Z,15.60
2022-09-15T06:06:07.695Z,15.40
2022-09-15T06:08:36.592Z,15.40
2022-09-15T06:11:15.179Z,15.40
2022-09-15T06:13:42.527Z,15.40
2022-09-15T06:16:11.260Z,15.40
2022-09-15T06:18:39.099Z,15.30
2022-09-15T06:21:07.932Z,15.30
2022-09-15T06:23:35.047Z,15.30
2022-09-15T06:26:06.886Z,15.40
2022-09-15T06:28:34.118Z,15.40
2022-09-15T06:31:01.079Z,15.30
2022-09-15T06:33:28.057Z,15.30
2022-09-15T06:35:55.146Z,15.30
2022-09-15T06:38:22.087Z,15.30
2022-09-15T06:41:01.548Z,15.30
2022-09-15T06:43:31.106Z,15.20
2022-09-15T06:46:09.353Z,15.10
2022-09-15T06:48:37.030Z,15.10
2022-09-15T06:51:04.778Z,15.10
2022-09-15T06:53:32.900Z,15.10
2022-09-15T06:56:12.090Z,15.20
2022-09-15T06:58:40.530Z,15.20
2022-09-15T07:01:15.859Z,15.40
2022-09-15T07:03:44.094Z,15.40
2022-09-15T07:06:14.495Z,15.30
2022-09-15T07:08:41.867Z,15.40
2022-09-15T07:11:09.872Z,15.60
2022-09-15T07:13:36.892Z,15.60
2022-09-15T07:16:05.250Z,15.60
2022-09-15T07:18:32.627Z,15.70
2022-09-15T07:21:00.971Z,15.70
2022-09-15T07:23:27.878Z,15.70
2022-09-15T07:26:08.914Z,15.80
2022-09-15T07:28:36.166Z,15.70
2022-09-15T07:31:04.828Z,15.70
2022-09-15T07:33:31.993Z,15.70
2022-09-15T07:36:00.801Z,15.70
2022-09-15T07:38:27.743Z,15.70
2022-09-15T07:40:54.916Z,15.70
2022-09-15T07:43:21.792Z,15.70
2022-09-15T07:45:48.739Z,15.70
2022-09-15T07:48:16.269Z,15.70
2022-09-15T07:50:49.557Z,15.60
2022-09-15T07:53:17.705Z,15.60
2022-09-15T07:55:44.618Z,15.50
2022-09-15T07:58:11.527Z,15.50
2022-09-15T08:00:39.345Z,15.60
2022-09-15T08:03:09.914Z,15.60
2022-09-15T08:05:40.304Z,15.70
2022-09-15T08:08:09.439Z,15.60
2022-09-15T08:10:39.208Z,15.50
2022-09-15T08:13:06.338Z,15.60
2022-09-15T08:15:36.446Z,15.90
2022-09-15T08:18:03.828Z,16.10
2022-09-15T08:20:31.616Z,16.00
2022-09-15T08:22:58.947Z,16.20
2022-09-15T08:25:25.837Z,16.10
2022-09-15T08:27:54.246Z,16.10
2022-09-15T08:30:22.565Z,16.10
2022-09-15T08:32:49.962Z,16.10
2022-09-15T08:35:19.716Z,16.30
2022-09-15T08:37:49.516Z,16.30
2022-09-15T08:40:18.124Z,16.30
2022-09-15T08:42:45.951Z,16.40
2022-09-15T08:45:28.817Z,16.40
2022-09-15T08:47:58.833Z,16.50
2022-09-15T08:50:48.218Z,16.80
2022-09-15T08:53:35.047Z,17.30
2022-09-15T08:56:09.311Z,17.30
2022-09-15T08:58:37.760Z,17.50
2022-09-15T09:01:10.826Z,17.70
2022-09-15T09:03:48.668Z,17.60
2022-09-15T09:06:22.597Z,17.90
2022-09-15T09:09:09.354Z,18.00
2022-09-15T09:12:13.921Z,17.80
2022-09-15T09:15:12.314Z,17.80
2022-09-15T09:17:47.702Z,17.60
2022-09-15T09:20:37.327Z,17.40
2022-09-15T09:23:05.577Z,17.50
2022-09-15T09:25:32.548Z,17.80
2022-09-15T09:27:59.479Z,17.80
2022-09-15T09:30:27.783Z,17.70
2022-09-15T09:32:57.949Z,17.70
2022-09-15T09:35:51.914Z,17.60
2022-09-15T09:38:25.338Z,17.60
2022-09-15T09:40:52.502Z,17.80
2022-09-15T09:43:19.418Z,17.80
2022-09-15T09:45:47.395Z,17.70
2022-09-15T09:48:24.535Z,17.60
2022-09-15T09:50:51.642Z,17.60
2022-09-15T09:53:20.321Z,17.50
2022-09-15T09:55:48.043Z,17.50
2022-09-15T09:58:19.966Z,17.60
2022-09-15T10:00:50.545Z,17.60
2022-09-15T10:03:19.948Z,17.60
2022-09-15T10:06:05.953Z,17.70
2022-09-15T10:08:32.987Z,17.90
2022-09-15T10:11:06.835Z,18.10
2022-09-15T10:13:35.018Z,18.00
2022-09-15T10:16:02.698Z,17.90
2022-09-15T10:18:37.257Z,17.70
2022-09-15T10:21:06.134Z,17.60
2022-09-15T10:23:34.212Z,17.60
2022-09-15T10:26:17.632Z,17.60
2022-09-15T10:28:44.987Z,17.50
2022-09-15T10:31:16.957Z,17.60
2022-09-15T10:33:47.942Z,17.50
2022-09-15T10:36:22.816Z,17.40
2022-09-15T10:38:54.983Z,17.40
2022-09-15T10:41:32.301Z,17.40
2022-09-15T10:44:29.946Z,17.40
2022-09-15T10:47:18.446Z,17.50
2022-09-15T10:50:04.092Z,17.40
2022-09-15T10:52:42.059Z,17.40
2022-09-15T10:55:48.575Z,17.30
2022-09-15T10:58:25.504Z,17.00
2022-09-15T11:01:10.018Z,16.60
2022-09-15T11:03:49.756Z,16.30
2022-09-15T11:06:30.257Z,16.20
2022-09-15T11:09:18.995Z,16.30
2022-09-15T11:12:17.462Z,16.50
2022-09-15T11:14:51.749Z,16.60
2022-09-15T11:17:34.397Z,16.70
2022-09-15T11:20:10.202Z,17.00
2022-09-15T11:22:49.276Z,17.40
2022-09-15T11:25:21.235Z,17.60
2022-09-15T11:28:11.521Z,17.20
2022-09-15T11:30:47.023Z,17.10
2022-09-15T11:33:19.226Z,16.80
2022-09-15T11:36:10.049Z,16.70
2022-09-15T11:38:48.133Z,16.70
2022-09-15T11:41:20.388Z,17.00
2022-09-15T11:43:53.442Z,17.30
2022-09-15T11:47:04.837Z,17.50
2022-09-15T11:49:36.101Z,17.50
2022-09-15T11:52:13.527Z,17.50
2022-09-15T11:54:50.510Z,17.40
2022-09-15T11:57:24.916Z,17.50
2022-09-15T11:59:58.148Z,17.60
2022-09-15T12:02:42.870Z,17.60
2022-09-15T12:05:22.394Z,17.70
2022-09-15T12:08:09.214Z,17.90
2022-09-15T12:10:41.375Z,17.80
2022-09-15T12:13:13.317Z,17.70
2022-09-15T12:15:40.243Z,17.60
2022-09-15T12:18:37.398Z,17.50
2022-09-15T12:21:35.925Z,17.30
2022-09-15T12:24:23.656Z,17.20
2022-09-15T12:26:50.901Z,17.20
2022-09-15T12:29:26.830Z,17.10
2022-09-15T12:32:27.769Z,17.10
2022-09-15T12:34:59.034Z,17.10
2022-09-15T12:37:44.123Z,17.00
2022-09-15T12:40:39.420Z,16.90
2022-09-15T12:43:12.946Z,16.80
2022-09-15T12:45:40.902Z,16.80
2022-09-15T12:48:14.999Z,16.80
2022-09-15T12:50:43.231Z,16.90
2022-09-15T12:53:14.349Z,17.00
2022-09-15T12:55:52.561Z,17.10
2022-09-15T12:58:36.816Z,17.00
2022-09-15T13:01:19.424Z,17.10
2022-09-15T13:03:48.965Z,17.20
2022-09-15T13:06:23.551Z,17.20
2022-09-15T13:08:51.253Z,17.30
2022-09-15T13:11:31.836Z,17.40
2022-09-15T13:14:07.765Z,17.30
2022-09-15T13:16:40.738Z,17.30
2022-09-15T13:19:14.042Z,17.30
2022-09-15T13:21:42.781Z,17.30
2022-09-15T13:24:17.667Z,17.40
2022-09-15T13:26:44.968Z,17.40
2022-09-15T13:29:16.328Z,17.50
2022-09-15T13:31:49.808Z,17.50
2022-09-15T13:35:08.866Z,17.70
2022-09-15T13:38:08.381Z,17.80
2022-09-15T13:40:59.727Z,17.90
2022-09-15T13:43:41.191Z,17.90
2022-09-15T13:46:18.562Z,17.90
2022-09-15T13:49:16.247Z,18.00
2022-09-15T13:51:45.032Z,18.20
2022-09-15T13:54:19.259Z,18.40
2022-09-15T13:56:47.606Z,18.40
2022-09-15T13:59:24.204Z,18.20
2022-09-15T14:01:52.744Z,18.00
2022-09-15T14:04:25.177Z,18.20
2022-09-15T14:06:55.988Z,18.10
2022-09-15T14:09:28.251Z,18.10
2022-09-15T14:11:57.713Z,18.10
2022-09-15T14:14:27.714Z,18.20
2022-09-15T14:16:56.108Z,18.10
2022-09-15T14:19:36.044Z,18.00
2022-09-15T14:22:17.972Z,18.00
2022-09-15T14:24:47.781Z,18.00
2022-09-15T14:27:27.605Z,17.80
2022-09-15T14:29:55.494Z,17.90
2022-09-15T14:32:22.425Z,18.00
2022-09-15T14:34:49.563Z,17.90
2022-09-15T14:37:29.446Z,18.00
2022-09-15T14:39:58.673Z,18.00
2022-09-15T14:42:31.048Z,18.20
2022-09-15T14:48:16.256Z,18.00
2022-09-15T14:50:53.818Z,17.80
2022-09-15T14:53:21.117Z,17.90
2022-09-15T14:56:08.430Z,17.90
2022-09-15T14:58:52.171Z,17.80
2022-09-15T15:01:21.998Z,17.60
2022-09-15T15:03:54.881Z,17.50
2022-09-15T15:06:29.374Z,17.40
2022-09-15T15:09:00.758Z,17.40
2022-09-15T15:11:28.101Z,17.30
2022-09-15T15:13:55.238Z,17.20
2022-09-15T15:16:24.795Z,17.30
2022-09-15T15:18:52.205Z,17.30
2022-09-15T15:21:37.739Z,17.50
2022-09-15T15:24:10.200Z,17.60
2022-09-15T15:26:39.932Z,17.50
2022-09-15T15:29:08.359Z,17.50
2022-09-15T15:31:38.609Z,17.50
2022-09-15T15:34:06.893Z,17.70
2022-09-15T15:36:34.987Z,17.70
2022-09-15T15:39:08.191Z,17.70
2022-09-15T15:41:37.535Z,17.80
2022-09-15T15:44:09.341Z,17.60
2022-09-15T15:46:49.243Z,17.40
2022-09-15T15:49:17.589Z,17.40
2022-09-15T15:51:44.920Z,17.40
2022-09-15T15:54:11.891Z,17.40
2022-09-15T15:56:39.016Z,17.50
2022-09-15T15:59:06.325Z,17.40
2022-09-15T16:01:33.396Z,17.40
2022-09-15T16:04:00.412Z,17.50
2022-09-15T16:06:27.577Z,17.40
2022-09-15T16:08:54.562Z,17.40
2022-09-15T16:11:21.531Z,17.30
2022-09-15T16:13:48.443Z,17.20
2022-09-15T16:16:20.446Z,17.10
2022-09-15T16:18:47.987Z,17.20
2022-09-15T16:21:23.547Z,17.20
2022-09-15T16:23:50.623Z,17.20
2022-09-15T16:26:19.024Z,17.20
2022-09-15T16:28:46.783Z,17.10
2022-09-15T16:31:14.693Z,17.10
2022-09-15T16:33:42.810Z,17.00
2022-09-15T16:36:14.647Z,16.90
2022-09-15T16:38:42.204Z,17.00
2022-09-15T16:41:14.128Z,16.90
2022-09-15T16:43:41.062Z,16.90
2022-09-15T16:46:09.607Z,16.90
2022-09-15T16:48:36.908Z,16.70
2022-09-15T16:51:32.013Z,16.70
2022-09-15T16:53:52.207Z,16.70
2022-09-15T16:56:19.248Z,16.60
2022-09-15T16:58:46.850Z,16.60
2022-09-15T17:01:21.173Z,16.60
2022-09-15T17:03:51.237Z,16.60
2022-09-15T17:06:18.763Z,16.60
2022-09-15T17:08:46.388Z,16.70
2022-09-15T17:11:20.140Z,16.60
2022-09-15T17:13:50.179Z,16.50
2022-09-15T17:16:22.170Z,16.50
2022-09-15T17:18:49.414Z,16.50
2022-09-15T17:21:18.128Z,16.50
2022-09-15T17:23:47.401Z,16.50
2022-09-15T17:26:18.360Z,16.50
2022-09-15T17:28:47.871Z,16.50
2022-09-15T17:31:23.338Z,16.30
2022-09-15T17:33:50.981Z,16.20
2022-09-15T17:36:18.261Z,16.10
2022-09-15T17:38:47.816Z,16.20
2022-09-15T17:41:20.063Z,16.20
2022-09-15T17:43:47.724Z,16.20
2022-09-15T17:46:14.812Z,15.90
2022-09-15T17:48:41.947Z,15.80
2022-09-15T17:51:12.760Z,15.80
2022-09-15T17:53:40.428Z,15.70
2022-09-15T17:56:07.412Z,15.70
2022-09-15T17:58:34.526Z,15.70
2022-09-15T18:01:01.546Z,15.70
2022-09-15T18:03:35.062Z,15.80
2022-09-15T18:06:07.226Z,15.80
2022-09-15T18:08:35.972Z,15.80
2022-09-15T18:11:04.062Z,15.80
2022-09-15T18:13:31.323Z,15.80
2022-09-15T18:16:05.313Z,15.70
2022-09-15T18:18:32.401Z,15.50
2022-09-15T18:20:59.514Z,15.20
2022-09-15T18:23:28.826Z,15.10
2022-09-15T18:25:55.785Z,15.10
2022-09-15T18:28:22.766Z,15.00
2022-09-15T18:30:50.398Z,15.00
2022-09-15T18:33:24.605Z,15.20
2022-09-15T18:35:56.235Z,15.20
2022-09-15T18:38:23.613Z,15.10
2022-09-15T18:40:55.957Z,15.00
2022-09-15T18:43:25.278Z,15.00
2022-09-15T18:45:54.905Z,15.10
2022-09-15T18:48:21.862Z,14.90
2022-09-15T18:50:48.905Z,14.90
2022-09-15T18:53:15.995Z,14.80
2022-09-15T18:55:43.837Z,14.70
2022-09-15T18:58:13.621Z,14.50
2022-09-15T19:00:40.692Z,14.60
2022-09-15T19:03:09.661Z,14.50
2022-09-15T19:05:39.607Z,14.60
2022-09-15T19:08:08.533Z,14.60
2022-09-15T19:10:35.698Z,14.40
2022-09-15T19:13:02.580Z,14.50
2022-09-15T19:15:31.341Z,14.60
2022-09-15T19:17:58.400Z,14.60
2022-09-15T19:20:25.286Z,14.50
2022-09-15T19:22:52.218Z,14.50
2022-09-15T19:25:19.436Z,14.60
2022-09-15T19:27:47.974Z,14.80
2022-09-15T19:30:16.411Z,14.80
2022-09-15T19:32:47.745Z,14.90
2022-09-15T19:35:17.469Z,14.90
2022-09-15T19:37:44.518Z,15.00
2022-09-15T19:40:13.915Z,14.90
2022-09-15T19:42:42.090Z,14.80
2022-09-15T19:45:10.412Z,14.70
2022-09-15T19:47:40.874Z,14.50
2022-09-15T19:50:10.751Z,14.70
2022-09-15T19:52:37.681Z,14.70
2022-09-15T19:55:07.123Z,14.60
2022-09-15T19:57:34.400Z,14.40
2022-09-15T20:00:01.327Z,14.40
2022-09-15T20:02:29.201Z,14.40
2022-09-15T20:07:37.773Z,14.60
2022-09-15T20:10:05.036Z,14.30
2022-09-15T20:12:32.047Z,14.30
2022-09-15T20:14:59.272Z,14.30
2022-09-15T20:17:26.360Z,14.30
2022-09-15T20:19:53.271Z,14.20
2022-09-15T20:22:26.134Z,14.20
2022-09-15T20:24:53.090Z,14.10
2022-09-15T20:27:19.973Z,14.00
2022-09-15T20:29:48.244Z,14.10
2022-09-15T20:32:15.646Z,13.90
2022-09-15T20:34:42.838Z,13.70
2022-09-15T20:37:09.918Z,13.70
2022-09-15T20:39:36.954Z,13.70
2022-09-15T20:42:04.127Z,13.90
2022-09-15T20:44:31.102Z,14.00
2022-09-15T20:46:59.585Z,14.00
2022-09-15T20:49:26.756Z,14.00
2022-09-15T20:51:53.719Z,13.80
2022-09-15T20:54:20.708Z,13.80
2022-09-15T20:56:47.908Z,13.80
2022-09-15T20:59:17.219Z,13.70
2022-09-15T21:01:44.116Z,13.60
2022-09-15T21:04:11.285Z,13.50
2022-09-15T21:06:38.519Z,13.50
2022-09-15T21:09:05.758Z,13.60
2022-09-15T21:11:32.750Z,13.50
2022-09-15T21:13:59.643Z,13.50
2022-09-15T21:16:27.961Z,13.60
2022-09-15T21:18:56.318Z,13.60
2022-09-15T21:21:30.478Z,13.60
2022-09-15T21:24:04.126Z,13.60
2022-09-15T21:27:00.422Z,13.70
2022-09-15T21:29:27.928Z,13.50
2022-09-15T21:31:58.181Z,13.50
2022-09-15T21:34:25.294Z,13.60
2022-09-15T21:36:53.677Z,13.60
2022-09-15T21:39:21.429Z,13.60
2022-09-15T21:41:48.437Z,13.50
2022-09-15T21:44:15.961Z,13.40
2022-09-15T21:46:44.999Z,13.00
2022-09-15T21:49:12.190Z,13.10
2022-09-15T21:51:39.770Z,13.20
2022-09-15T21:54:06.751Z,13.10
2022-09-15T21:56:33.822Z,13.20
2022-09-15T21:59:02.886Z,13.40
2022-09-15T22:01:31.470Z,13.40
2022-09-15T22:04:03.497Z,13.50
2022-09-15T22:06:35.298Z,13.40
2022-09-15T22:09:08.146Z,13.50
2022-09-15T22:11:35.427Z,13.50
2022-09-15T22:14:03.596Z,13.50
2022-09-15T22:16:30.657Z,13.50
2022-09-15T22:18:57.854Z,13.50
2022-09-15T22:21:29.820Z,13.50
2022-09-15T22:23:57.897Z,13.40
2022-09-15T22:26:26.871Z,13.20
2022-09-15T22:28:54.052Z,13.20
2022-09-15T22:31:22.092Z,13.10
2022-09-15T22:33:49.150Z,13.10
2022-09-15T22:36:18.538Z,13.20
2022-09-15T22:38:48.064Z,13.20
2022-09-15T22:41:17.712Z,13.20
2022-09-15T22:43:46.053Z,13.20
2022-09-15T22:46:13.070Z,13.30
2022-09-15T22:48:43.508Z,13.30
2022-09-15T22:51:11.270Z,13.20
2022-09-15T22:53:38.431Z,13.20
2022-09-15T22:56:06.679Z,13.20
2022-09-15T22:58:34.432Z,13.20
2022-09-15T23:01:09.983Z,13.30
2022-09-15T23:03:37.827Z,13.30
2022-09-15T23:06:05.629Z,13.30
2022-09-15T23:08:32.849Z,13.20
2022-09-15T23:11:08.612Z,13.10
2022-09-15T23:13:35.504Z,13.10
2022-09-15T23:16:02.606Z,13.20
2022-09-15T23:18:30.095Z,13.20
2022-09-15T23:21:01.323Z,13.10
2022-09-15T23:23:28.978Z,13.00
2022-09-15T23:25:56.244Z,13.00
2022-09-15T23:28:23.492Z,13.00
2022-09-15T23:30:54.574Z,13.10
2022-09-15T23:33:22.435Z,13.20
2022-09-15T23:35:49.832Z,13.20
2022-09-15T23:38:20.571Z,13.30
2022-09-15T23:40:48.824Z,13.20
2022-09-15T23:43:16.908Z,13.10
2022-09-15T23:45:44.538Z,13.20
2022-09-15T23:48:11.747Z,12.90
2022-09-15T23:50:38.980Z,13.10
2022-09-15T23:53:06.072Z,13.20
2022-09-15T23:55:33.047Z,13.20
2022-09-15T23:58:00.129Z,13.30
